createdAt,value
2022-09-12T00:02:15.634Z,5.37
2022-09-12T00:17:17.799Z,4.32
2022-09-12T00:32:20.194Z,4.65
2022-09-12T00:47:31.879Z,4.72
2022-09-12T01:02:33.696Z,4.25
2022-09-12T01:18:05.962Z,4.43
2022-09-12T01:33:33.423Z,4.77
2022-09-12T01:49:01.467Z,4.90
2022-09-12T02:04:10.759Z,5.40
2022-09-12T02:19:18.792Z,5.17
2022-09-12T02:34:26.469Z,7.40
2022-09-12T02:49:28.354Z,7.07
2022-09-12T03:04:57.650Z,9.70
2022-09-12T03:20:35.082Z,11.47
2022-09-12T03:35:36.871Z,18.73
2022-09-12T03:50:38.694Z,17.30
2022-09-12T04:05:40.479Z,19.13
2022-09-12T04:20:43.086Z,15.17
2022-09-12T04:35:45.598Z,16.43
2022-09-12T04:50:47.419Z,10.10
2022-09-12T05:05:52.205Z,10.90
2022-09-12T05:20:56.651Z,7.93
2022-09-12T05:35:58.950Z,6.63
2022-09-12T05:51:02.765Z,8.60
2022-09-12T06:06:06.504Z,12.17
2022-09-12T06:21:13.002Z,14.03
2022-09-12T06:36:21.324Z,10.53
2022-09-12T06:51:23.651Z,21.67
2022-09-12T07:06:32.056Z,7.43
2022-09-12T07:21:40.660Z,8.50
2022-09-12T07:52:00.915Z,8.25
2022-09-12T08:07:02.778Z,8.43
2022-09-12T08:22:05.757Z,12.00
2022-09-12T08:37:07.571Z,16.75
2022-09-12T08:52:17.509Z,30.58
2022-09-12T09:07:50.502Z,12.77
2022-09-12T09:22:58.546Z,10.38
2022-09-12T09:38:24.803Z,13.10
2022-09-12T09:53:29.429Z,26.17
2022-09-12T10:08:37.855Z,18.15
2022-09-12T10:23:41.612Z,15.80
2022-09-12T10:38:58.144Z,11.85
2022-09-12T10:54:02.858Z,13.25
2022-09-12T11:09:25.147Z,12.55
2022-09-12T11:24:27.219Z,9.75
2022-09-12T11:39:52.278Z,10.33
2022-09-12T11:55:15.125Z,7.10
2022-09-12T12:10:40.962Z,6.68
2022-09-12T12:25:55.709Z,7.00
2022-09-12T12:41:19.543Z,7.30
2022-09-12T13:11:41.750Z,6.80
2022-09-12T13:26:47.916Z,11.50
2022-09-12T13:42:08.210Z,7.85
2022-09-12T13:57:29.784Z,8.20
2022-09-12T14:12:36.401Z,8.65
2022-09-12T14:27:46.134Z,7.63
2022-09-12T14:42:53.025Z,6.13
2022-09-12T14:58:14.287Z,6.05
2022-09-12T15:13:26.054Z,6.13
2022-09-12T15:28:28.802Z,6.80
2022-09-12T15:43:30.579Z,8.03
2022-09-12T15:58:32.361Z,6.35
2022-09-12T16:13:34.333Z,8.18
2022-09-12T16:28:36.568Z,7.72
2022-09-12T16:43:38.807Z,11.48
2022-09-12T16:58:42.280Z,6.55
2022-09-12T17:14:07.854Z,6.17
2022-09-12T17:29:14.157Z,6.63
2022-09-12T17:44:16.415Z,6.28
2022-09-12T17:59:20.882Z,7.15
2022-09-12T18:14:23.436Z,8.15
2022-09-12T18:29:28.281Z,8.60
2022-09-12T18:44:30.176Z,10.80
2022-09-12T18:59:32.009Z,7.47
2022-09-12T19:14:33.927Z,6.37
2022-09-12T19:29:35.932Z,5.60
2022-09-12T19:44:38.417Z,6.00
2022-09-12T19:59:40.362Z,5.13
2022-09-12T20:14:42.353Z,6.63
2022-09-12T20:29:44.474Z,9.00
2022-09-12T20:44:46.255Z,8.20
2022-09-12T20:59:48.147Z,6.20
2022-09-12T21:14:50.069Z,5.97
2022-09-12T21:29:53.693Z,6.37
2022-09-12T21:44:55.541Z,7.83
2022-09-12T21:59:57.963Z,9.57
2022-09-12T22:14:59.875Z,9.10
2022-09-12T22:30:01.831Z,10.03
2022-09-12T22:45:05.369Z,8.37
2022-09-12T23:00:10.667Z,9.87
2022-09-12T23:15:12.568Z,10.33
2022-09-12T23:30:14.646Z,11.37
2022-09-12T23:45:16.794Z,10.60
